Time;durP1;ratioP1;P1;durP2;ratioP2;P2;SDS_P1;SDS_P2;PMS_P1;PMS_P2;Temp;Humidity;BMP_temperature;BMP_pressure;BME280_temperature;BME280_humidity;BME280_pressure;Samples;Min_cycle;Max_cycle;Signal;HPM_P1;HPM_P2
2021/06/27 00:01:22;;;;;;;39.10;35.07;;;19.50;97.00;;;;;;5055365;28;20256;-75
2021/06/27 00:03:48;;;;;;;41.43;37.10;;;19.50;97.90;;;;;;5057461;28;20174;-79
2021/06/27 00:06:14;;;;;;;40.07;35.93;;;19.40;98.50;;;;;;5057380;28;20241;-79
2021/06/27 00:08:41;;;;;;;40.13;36.03;;;19.50;98.80;;;;;;5076055;28;20195;-81
2021/06/27 00:11:09;;;;;;;40.60;36.37;;;19.40;99.20;;;;;;5060841;28;20509;-80
2021/06/27 00:13:37;;;;;;;41.57;37.13;;;19.20;99.50;;;;;;5059116;28;20172;-77
2021/06/27 00:16:05;;;;;;;40.93;36.70;;;19.30;99.90;;;;;;5060490;28;20171;-81
2021/06/27 00:18:31;;;;;;;42.27;37.73;;;19.20;99.90;;;;;;5058866;28;20170;-79
2021/06/27 00:21:00;;;;;;;41.43;37.00;;;19.20;99.90;;;;;;5059467;28;20174;-79
2021/06/27 00:23:29;;;;;;;41.47;37.17;;;19.10;99.90;;;;;;5057271;28;20169;-78
2021/06/27 00:25:57;;;;;;;41.73;37.33;;;19.10;99.90;;;;;;5055772;28;20206;-73
2021/06/27 00:28:22;;;;;;;43.17;38.63;;;19.10;99.90;;;;;;5058788;28;20224;-79
2021/06/27 00:30:51;;;;;;;43.47;38.83;;;19.00;99.90;;;;;;5076184;28;20621;-80
2021/06/27 00:33:17;;;;;;;43.23;38.63;;;19.00;99.90;;;;;;5076199;28;20175;-78
2021/06/27 00:35:44;;;;;;;45.53;40.70;;;19.00;99.90;;;;;;5060689;28;20181;-77
2021/06/27 00:38:10;;;;;;;43.70;39.03;;;18.90;99.90;;;;;;5060358;28;20165;-77
2021/06/27 00:40:36;;;;;;;44.03;39.33;;;18.90;99.90;;;;;;5058984;28;20214;-79
2021/06/27 00:43:04;;;;;;;46.20;41.13;;;18.90;99.90;;;;;;5059337;28;20232;-80
2021/06/27 00:45:30;;;;;;;48.33;42.70;;;19.00;99.90;;;;;;5059466;28;20205;-81
2021/06/27 00:48:00;;;;;;;45.47;40.30;;;18.90;99.90;;;;;;5059985;28;20534;-78
2021/06/27 00:50:32;;;;;;;46.03;41.03;;;19.00;99.90;;;;;;5060093;28;20173;-79
2021/06/27 00:52:58;;;;;;;47.97;43.00;;;18.90;99.90;;;;;;5058818;28;20161;-80
2021/06/27 00:55:24;;;;;;;46.60;41.47;;;18.80;99.90;;;;;;5059630;28;20523;-76
2021/06/27 00:57:52;;;;;;;49.00;43.67;;;18.80;99.90;;;;;;5059266;28;20193;-74
2021/06/27 01:00:23;;;;;;;48.53;43.27;;;18.90;99.90;;;;;;5059808;28;20181;-79
2021/06/27 01:02:49;;;;;;;49.73;43.33;;;18.80;99.90;;;;;;5060040;28;20229;-80
2021/06/27 01:05:18;;;;;;;51.43;45.23;;;18.80;99.90;;;;;;5058337;28;20212;-80
2021/06/27 01:07:44;;;;;;;51.43;45.00;;;18.90;99.90;;;;;;5074719;28;20648;-80
2021/06/27 01:10:11;;;;;;;49.67;44.73;;;18.70;99.90;;;;;;5058577;28;20180;-80
2021/06/27 01:12:36;;;;;;;51.90;46.30;;;18.70;99.90;;;;;;5058671;28;20180;-76
2021/06/27 01:15:08;;;;;;;51.07;45.50;;;18.80;99.90;;;;;;5059036;28;20174;-76
2021/06/27 01:17:34;;;;;;;52.57;46.40;;;18.80;99.90;;;;;;5058982;28;20653;-78
2021/06/27 01:20:00;;;;;;;52.77;45.30;;;18.90;99.90;;;;;;5059766;28;20194;-79
2021/06/27 01:22:26;;;;;;;52.03;46.43;;;18.80;99.90;;;;;;5058826;28;20176;-78
2021/06/27 01:24:52;;;;;;;52.27;46.87;;;18.90;99.90;;;;;;5058299;28;20196;-80
2021/06/27 01:27:18;;;;;;;52.67;46.77;;;18.90;99.90;;;;;;5059433;28;20192;-79
2021/06/27 01:29:44;;;;;;;60.57;48.73;;;19.00;99.90;;;;;;5057644;28;20180;-80
2021/06/27 01:32:11;;;;;;;54.97;48.33;;;18.90;99.90;;;;;;5065774;28;20171;-77
2021/06/27 01:34:43;;;;;;;53.80;48.00;;;18.90;99.90;;;;;;5084718;28;20251;-78
2021/06/27 01:37:09;;;;;;;54.70;48.73;;;18.90;99.90;;;;;;5072057;28;20190;-79
2021/06/27 01:39:35;;;;;;;53.53;47.37;;;18.90;99.90;;;;;;5073998;28;20171;-78
2021/06/27 01:42:01;;;;;;;55.90;49.90;;;18.90;99.90;;;;;;5073346;28;20180;-73
2021/06/27 01:44:29;;;;;;;55.70;49.70;;;18.90;99.90;;;;;;5071805;28;20165;-77
2021/06/27 01:46:56;;;;;;;56.23;50.13;;;18.90;99.90;;;;;;5072945;28;20237;-77
2021/06/27 01:49:23;;;;;;;56.70;50.43;;;18.90;99.90;;;;;;5071924;28;20241;-76
2021/06/27 01:51:53;;;;;;;55.43;49.47;;;19.00;99.90;;;;;;5079594;28;20177;-78
2021/06/27 01:54:20;;;;;;;56.30;49.20;;;18.90;99.90;;;;;;5066548;28;20184;-75
2021/06/27 01:56:47;;;;;;;56.97;50.20;;;18.90;99.90;;;;;;5077383;28;20179;-74
2021/06/27 01:59:13;;;;;;;55.33;49.27;;;19.00;99.90;;;;;;5073573;28;20180;-74
2021/06/27 02:01:40;;;;;;;56.10;49.93;;;19.10;99.90;;;;;;5077604;28;20173;-73
2021/06/27 02:04:08;;;;;;;56.73;49.17;;;19.00;99.90;;;;;;5070458;28;20154;-80
2021/06/27 02:06:39;;;;;;;57.07;48.43;;;19.00;99.90;;;;;;5058937;28;20203;-76
2021/06/27 02:09:11;;;;;;;53.63;47.77;;;19.00;99.90;;;;;;5057711;28;20161;-79
2021/06/27 02:11:43;;;;;;;55.53;49.53;;;18.90;99.90;;;;;;5056119;28;20258;-78
2021/06/27 02:14:10;;;;;;;55.63;49.73;;;18.80;99.90;;;;;;5056279;28;20157;-76
2021/06/27 02:16:36;;;;;;;55.57;49.67;;;18.90;99.90;;;;;;5056273;28;20170;-79
2021/06/27 02:19:02;;;;;;;55.87;49.97;;;18.80;99.90;;;;;;5056790;28;20198;-78
2021/06/27 02:21:32;;;;;;;55.47;49.37;;;18.80;99.90;;;;;;5056689;28;20174;-79
2021/06/27 02:23:59;;;;;;;58.37;52.03;;;18.80;99.90;;;;;;5055978;28;20161;-78
2021/06/27 02:26:26;;;;;;;59.90;52.17;;;18.70;99.90;;;;;;5071659;28;20212;-78
2021/06/27 02:28:53;;;;;;;58.47;51.07;;;18.80;99.90;;;;;;5055999;28;20210;-76
2021/06/27 02:31:19;;;;;;;56.07;50.23;;;18.70;99.90;;;;;;5056171;28;20170;-79
2021/06/27 02:33:45;;;;;;;58.43;51.73;;;18.70;99.90;;;;;;5056013;28;20193;-80
2021/06/27 02:36:12;;;;;;;58.30;51.70;;;18.80;99.90;;;;;;5055945;28;20625;-77
2021/06/27 02:38:38;;;;;;;56.63;50.63;;;18.70;99.90;;;;;;5064211;28;20177;-79
2021/06/27 02:41:06;;;;;;;57.23;51.00;;;18.80;99.90;;;;;;5060686;28;20181;-79
2021/06/27 02:43:32;;;;;;;57.57;51.47;;;18.80;99.90;;;;;;5055686;28;20169;-79
2021/06/27 02:45:58;;;;;;;57.17;51.00;;;18.70;99.90;;;;;;5054896;28;20215;-78
2021/06/27 02:48:24;;;;;;;57.50;51.10;;;18.70;99.90;;;;;;5055861;28;20207;-80
2021/06/27 02:50:49;;;;;;;57.37;50.40;;;18.70;99.90;;;;;;5054557;28;20180;-79
2021/06/27 02:53:15;;;;;;;57.73;51.53;;;18.60;99.90;;;;;;5055870;28;20240;-79
2021/06/27 02:55:41;;;;;;;56.80;50.47;;;18.50;99.90;;;;;;5055597;28;20170;-79
2021/06/27 02:58:07;;;;;;;58.80;51.63;;;18.60;99.90;;;;;;5055402;28;20181;-78
2021/06/27 03:00:32;;;;;;;57.40;50.50;;;18.60;99.90;;;;;;5055094;28;20621;-79
2021/06/27 03:02:59;;;;;;;57.07;50.93;;;18.60;99.90;;;;;;5054949;28;20166;-80
2021/06/27 03:05:25;;;;;;;58.33;52.03;;;18.60;99.90;;;;;;5056594;28;20203;-80
2021/06/27 03:07:51;;;;;;;58.27;51.73;;;18.70;99.90;;;;;;5054727;28;20221;-75
2021/06/27 03:10:18;;;;;;;58.73;52.50;;;18.60;99.90;;;;;;5054696;28;20537;-77
2021/06/27 03:12:47;;;;;;;59.67;50.03;;;18.60;99.90;;;;;;5054607;28;20555;-78
2021/06/27 03:15:14;;;;;;;57.20;51.10;;;18.60;99.90;;;;;;5055017;28;20165;-80
2021/06/27 03:17:40;;;;;;;57.07;50.93;;;18.70;99.90;;;;;;5072143;28;20175;-79
2021/06/27 03:20:08;;;;;;;57.73;50.33;;;18.70;99.90;;;;;;5059096;28;20224;-80
2021/06/27 03:22:35;;;;;;;59.20;52.20;;;18.70;99.90;;;;;;5078664;28;20167;-77
2021/06/27 03:25:01;;;;;;;56.90;49.83;;;18.70;99.90;;;;;;5077054;28;20193;-75
2021/06/27 03:27:27;;;;;;;57.80;49.40;;;18.70;99.90;;;;;;5069590;28;20184;-76
2021/06/27 03:29:52;;;;;;;59.47;51.10;;;18.80;99.90;;;;;;5070020;28;20672;-78
2021/06/27 03:32:21;;;;;;;55.37;49.50;;;18.60;99.90;;;;;;5064849;28;20169;-80
2021/06/27 03:35:32;;;;;;;54.97;48.73;;;18.60;99.90;;;;;;5056352;28;20167;-77
2021/06/27 03:38:19;;;;;;;55.63;49.27;;;18.60;99.90;;;;;;5056080;28;20213;-79
2021/06/27 03:40:45;;;;;;;54.60;48.70;;;18.70;99.90;;;;;;5055083;28;20169;-78
2021/06/27 03:43:10;;;;;;;55.80;49.37;;;18.70;99.90;;;;;;5054097;28;20177;-75
2021/06/27 03:45:37;;;;;;;52.40;46.70;;;18.60;99.90;;;;;;5054552;28;20720;-78
2021/06/27 03:48:04;;;;;;;53.43;47.63;;;18.60;99.90;;;;;;5069977;28;20215;-80
2021/06/27 03:50:30;;;;;;;53.83;48.13;;;18.50;99.90;;;;;;5077647;28;20277;-74
2021/06/27 03:52:55;;;;;;;55.50;48.67;;;18.50;99.90;;;;;;5094820;28;20176;-78
2021/06/27 03:55:21;;;;;;;53.27;47.53;;;18.50;99.90;;;;;;5071782;28;20660;-74
2021/06/27 03:57:48;;;;;;;52.47;46.70;;;18.50;99.90;;;;;;5063953;28;20180;-79
2021/06/27 04:00:35;;;;;;;53.17;47.57;;;18.60;99.90;;;;;;5061653;28;20186;-79
2021/06/27 04:03:00;;;;;;;50.07;44.77;;;18.60;99.90;;;;;;5053771;28;20314;-78
2021/06/27 04:05:27;;;;;;;51.30;45.77;;;18.60;99.90;;;;;;5070138;28;20739;-80
2021/06/27 04:07:53;;;;;;;51.50;45.93;;;18.70;99.90;;;;;;5053579;28;20171;-80
2021/06/27 04:10:18;;;;;;;51.27;45.70;;;18.60;99.90;;;;;;5053324;28;20191;-76
2021/06/27 04:12:44;;;;;;;51.17;45.57;;;18.60;99.90;;;;;;5069126;28;20177;-80
2021/06/27 04:15:10;;;;;;;55.53;47.50;;;18.70;99.90;;;;;;5064669;28;20191;-75
2021/06/27 04:17:36;;;;;;;52.33;46.63;;;18.60;99.90;;;;;;5087994;28;20185;-78
2021/06/27 04:20:07;;;;;;;51.70;46.03;;;18.70;99.90;;;;;;5066374;28;20165;-79
2021/06/27 04:22:32;;;;;;;50.20;44.87;;;18.70;99.90;;;;;;5064821;28;20169;-77
2021/06/27 04:25:01;;;;;;;52.77;47.07;;;18.80;99.90;;;;;;5067354;28;20302;-77
2021/06/27 04:27:26;;;;;;;51.63;46.17;;;18.70;99.90;;;;;;5071643;28;20175;-77
2021/06/27 04:29:52;;;;;;;51.60;46.20;;;18.70;99.90;;;;;;5071757;28;20184;-76
2021/06/27 04:32:18;;;;;;;52.63;47.30;;;18.70;99.90;;;;;;5061781;28;20173;-79
2021/06/27 04:34:43;;;;;;;51.47;46.07;;;18.70;99.90;;;;;;5053345;28;20177;-80
2021/06/27 04:37:09;;;;;;;50.50;45.33;;;18.70;99.90;;;;;;5068532;28;20746;-79
2021/06/27 04:39:34;;;;;;;54.60;46.70;;;18.60;99.90;;;;;;5052808;28;20165;-78
2021/06/27 04:42:00;;;;;;;50.50;45.10;;;18.60;99.90;;;;;;5053230;28;20246;-80
2021/06/27 04:44:26;;;;;;;49.90;44.70;;;18.50;99.90;;;;;;5055542;28;20629;-78
2021/06/27 04:46:52;;;;;;;52.47;45.33;;;18.50;99.90;;;;;;5055707;28;20667;-79
2021/06/27 04:49:17;;;;;;;51.17;45.40;;;18.50;99.90;;;;;;5059959;28;20183;-80
2021/06/27 04:51:43;;;;;;;50.73;45.33;;;18.60;99.90;;;;;;5053323;28;20176;-79
2021/06/27 04:54:09;;;;;;;49.67;44.23;;;18.70;99.90;;;;;;5053045;28;20162;-80
2021/06/27 04:56:35;;;;;;;49.00;43.97;;;18.80;99.90;;;;;;5053778;28;20175;-80
2021/06/27 04:59:03;;;;;;;48.87;43.33;;;18.90;99.90;;;;;;5054006;28;20180;-78
2021/06/27 05:01:30;;;;;;;48.10;43.00;;;19.00;99.90;;;;;;5052918;28;20185;-79
2021/06/27 05:03:55;;;;;;;46.57;41.77;;;19.10;99.90;;;;;;5058035;28;20174;-80
2021/06/27 05:06:24;;;;;;;46.83;41.87;;;19.20;99.90;;;;;;5063209;28;20696;-80
2021/06/27 05:08:50;;;;;;;46.83;41.13;;;19.20;99.90;;;;;;5065209;28;20177;-75
2021/06/27 05:11:16;;;;;;;49.03;43.70;;;19.20;99.90;;;;;;5065713;28;20210;-75
2021/06/27 05:13:41;;;;;;;46.97;41.90;;;19.20;99.90;;;;;;5064840;28;20166;-79
2021/06/27 05:16:07;;;;;;;45.53;40.77;;;19.10;99.90;;;;;;5064365;28;20265;-77
2021/06/27 05:18:34;;;;;;;44.30;39.73;;;19.20;99.90;;;;;;5061031;28;20205;-80
2021/06/27 05:20:59;;;;;;;44.77;40.03;;;19.30;99.90;;;;;;5073713;28;20185;-81
2021/06/27 05:23:26;;;;;;;45.90;41.10;;;19.30;99.90;;;;;;5058315;28;20168;-80
2021/06/27 05:25:52;;;;;;;43.47;39.07;;;19.20;99.90;;;;;;5057325;28;20657;-79
2021/06/27 05:28:18;;;;;;;44.63;39.63;;;19.30;99.90;;;;;;5056741;28;20174;-80
2021/06/27 05:30:43;;;;;;;43.53;38.90;;;19.20;99.90;;;;;;5057407;28;20170;-81
2021/06/27 05:33:09;;;;;;;44.03;39.43;;;19.30;99.90;;;;;;5056892;28;20614;-80
2021/06/27 05:35:35;;;;;;;44.27;39.77;;;19.30;99.90;;;;;;5058129;28;20250;-80
2021/06/27 05:38:00;;;;;;;44.83;40.07;;;19.30;99.90;;;;;;5057185;28;20292;-80
2021/06/27 05:40:26;;;;;;;44.03;38.80;;;19.40;99.90;;;;;;5058150;28;20189;-77
2021/06/27 05:42:52;;;;;;;41.80;37.57;;;19.40;99.90;;;;;;5074516;28;20201;-77
2021/06/27 05:45:18;;;;;;;38.47;34.67;;;19.40;99.90;;;;;;5058624;28;20169;-79
2021/06/27 05:47:43;;;;;;;33.07;29.60;;;19.40;99.90;;;;;;5063706;28;20621;-75
2021/06/27 05:50:09;;;;;;;32.93;29.50;;;19.40;98.80;;;;;;5069146;28;20170;-81
2021/06/27 05:52:36;;;;;;;31.33;28.07;;;19.60;97.30;;;;;;5060367;28;20170;-80
2021/06/27 05:55:04;;;;;;;30.30;27.33;;;19.60;96.40;;;;;;5060582;28;20153;-78
2021/06/27 05:57:30;;;;;;;30.70;27.43;;;19.70;96.30;;;;;;5059657;28;20174;-77
2021/06/27 05:59:58;;;;;;;29.73;26.80;;;19.70;95.70;;;;;;5061405;28;20173;-77
2021/06/27 06:02:27;;;;;;;29.80;26.77;;;19.80;94.80;;;;;;5068150;28;20167;-78
2021/06/27 06:04:54;;;;;;;29.07;25.97;;;19.90;95.00;;;;;;5072705;28;20180;-79
2021/06/27 06:07:19;;;;;;;26.53;23.67;;;19.90;93.90;;;;;;5070293;28;20210;-79
2021/06/27 06:09:45;;;;;;;24.93;22.40;;;20.00;93.00;;;;;;5069330;28;20239;-75
2021/06/27 06:12:11;;;;;;;25.07;22.60;;;20.20;92.20;;;;;;5086505;28;20180;-79
2021/06/27 06:14:36;;;;;;;23.37;21.03;;;20.20;90.70;;;;;;5068087;28;20180;-78
2021/06/27 06:17:02;;;;;;;24.87;21.10;;;20.20;89.90;;;;;;5068101;28;20163;-78
2021/06/27 06:19:28;;;;;;;26.90;23.47;;;20.30;89.90;;;;;;5060529;28;20243;-80
2021/06/27 06:21:55;;;;;;;26.23;23.57;;;20.40;89.50;;;;;;5055766;28;20248;-78
2021/06/27 06:24:25;;;;;;;27.80;24.23;;;20.40;89.70;;;;;;5055630;28;20210;-78
2021/06/27 06:26:51;;;;;;;26.03;23.40;;;20.40;89.00;;;;;;5055413;28;20211;-77
2021/06/27 06:29:17;;;;;;;26.20;23.60;;;20.30;90.10;;;;;;5055189;28;20170;-76
2021/06/27 06:31:43;;;;;;;25.80;23.37;;;20.40;90.30;;;;;;5056427;28;20202;-76
2021/06/27 06:34:09;;;;;;;23.97;21.57;;;20.40;90.00;;;;;;5055229;28;20171;-79
2021/06/27 06:36:34;;;;;;;23.27;20.07;;;20.40;88.80;;;;;;5057351;28;20192;-78
2021/06/27 06:39:00;;;;;;;21.87;19.53;;;20.50;87.40;;;;;;5056729;28;20181;-80
2021/06/27 06:41:26;;;;;;;19.10;17.20;;;20.50;85.30;;;;;;5073193;28;20175;-80
2021/06/27 06:43:51;;;;;;;20.87;18.80;;;20.50;80.90;;;;;;5057080;28;20191;-76
2021/06/27 06:46:17;;;;;;;20.57;18.53;;;20.50;81.80;;;;;;5055735;28;20203;-79
2021/06/27 06:48:44;;;;;;;23.87;21.60;;;20.60;84.40;;;;;;5056444;28;20724;-79
2021/06/27 06:51:10;;;;;;;22.93;20.63;;;20.60;86.20;;;;;;5056276;28;20173;-77
2021/06/27 06:53:35;;;;;;;22.07;19.93;;;20.60;85.20;;;;;;5056777;28;20172;-79
2021/06/27 06:56:01;;;;;;;21.53;19.33;;;20.70;82.90;;;;;;5057236;28;20184;-79
2021/06/27 06:58:30;;;;;;;23.57;21.27;;;20.80;79.30;;;;;;5055449;28;20175;-79
2021/06/27 07:00:59;;;;;;;24.67;22.23;;;20.90;83.00;;;;;;5070294;28;20186;-81
2021/06/27 07:03:30;;;;;;;20.87;18.70;;;20.90;84.20;;;;;;5055580;28;20165;-77
2021/06/27 07:05:59;;;;;;;22.70;20.60;;;20.80;81.00;;;;;;5055799;28;20197;-80
2021/06/27 07:08:26;;;;;;;23.50;21.20;;;20.90;84.00;;;;;;5054803;28;20170;-79
2021/06/27 07:10:52;;;;;;;22.57;20.33;;;20.90;84.30;;;;;;5055923;28;20170;-79
2021/06/27 07:13:19;;;;;;;21.47;19.27;;;20.80;83.60;;;;;;5054354;28;20200;-79
2021/06/27 07:15:45;;;;;;;21.47;19.23;;;20.90;81.90;;;;;;5056828;28;20231;-81
2021/06/27 07:18:10;;;;;;;21.00;18.90;;;20.90;79.10;;;;;;5058305;28;20150;-76
2021/06/27 07:20:36;;;;;;;21.03;18.70;;;21.00;80.10;;;;;;5058792;28;20252;-76
2021/06/27 07:23:02;;;;;;;21.80;19.47;;;21.10;80.60;;;;;;5078442;28;20221;-76
2021/06/27 07:25:28;;;;;;;22.50;20.20;;;21.00;78.70;;;;;;5074059;28;20207;-79
2021/06/27 07:27:53;;;;;;;21.23;19.07;;;21.00;78.70;;;;;;5065426;28;20541;-78
2021/06/27 07:30:19;;;;;;;21.93;19.60;;;20.90;82.40;;;;;;5062058;28;20245;-78
2021/06/27 07:32:51;;;;;;;21.60;19.43;;;21.00;79.60;;;;;;5054989;28;20253;-77
2021/06/27 07:35:20;;;;;;;20.47;18.40;;;21.10;80.30;;;;;;5056100;28;20206;-76
2021/06/27 07:37:45;;;;;;;17.00;15.27;;;21.20;79.30;;;;;;5059676;28;20186;-79
2021/06/27 07:40:13;;;;;;;17.50;15.70;;;21.20;69.80;;;;;;5057375;28;20200;-81
2021/06/27 07:42:38;;;;;;;16.67;14.97;;;21.10;69.70;;;;;;5059517;28;20244;-79
2021/06/27 07:45:05;;;;;;;16.30;14.60;;;21.20;69.50;;;;;;5059599;28;20203;-80
2021/06/27 07:47:32;;;;;;;15.87;13.90;;;21.20;67.60;;;;;;5060509;28;20254;-78
2021/06/27 07:49:58;;;;;;;16.27;14.67;;;21.20;66.40;;;;;;5073659;28;20170;-77
2021/06/27 07:52:23;;;;;;;15.00;13.50;;;21.30;64.00;;;;;;5077690;28;20216;-73
2021/06/27 07:54:49;;;;;;;16.07;14.33;;;21.40;64.60;;;;;;5075815;28;20180;-76
2021/06/27 07:57:15;;;;;;;16.23;14.73;;;21.40;64.60;;;;;;5084366;28;20185;-79
2021/06/27 07:59:41;;;;;;;17.83;15.83;;;21.50;64.00;;;;;;5066814;28;20173;-74
2021/06/27 08:02:07;;;;;;;16.83;15.23;;;21.60;64.50;;;;;;5057041;28;20170;-80
2021/06/27 08:04:32;;;;;;;18.43;16.63;;;21.60;68.40;;;;;;5055751;28;20162;-78
2021/06/27 08:06:58;;;;;;;17.67;15.97;;;21.80;66.00;;;;;;5055463;28;20664;-82
2021/06/27 08:09:24;;;;;;;18.50;16.70;;;21.80;65.80;;;;;;5055542;28;20258;-79
2021/06/27 08:11:50;;;;;;;20.03;18.10;;;21.80;68.30;;;;;;5054485;28;20166;-81
2021/06/27 08:14:16;;;;;;;19.47;17.47;;;21.80;72.70;;;;;;5055140;28;20173;-81
2021/06/27 08:16:41;;;;;;;24.67;22.27;;;21.90;72.30;;;;;;5055664;28;20171;-79
2021/06/27 08:19:07;;;;;;;25.43;22.83;;;21.80;78.60;;;;;;5054556;28;20171;-81
2021/06/27 08:21:33;;;;;;;24.33;21.83;;;21.90;79.10;;;;;;5053953;28;20178;-79
2021/06/27 08:23:59;;;;;;;23.07;20.77;;;21.80;82.30;;;;;;5052643;28;20174;-76
2021/06/27 08:26:24;;;;;;;23.57;21.13;;;21.80;80.80;;;;;;5055131;28;20232;-81
2021/06/27 08:28:53;;;;;;;22.73;20.43;;;21.90;80.10;;;;;;5055378;28;20171;-79
2021/06/27 08:31:22;;;;;;;22.67;20.37;;;22.10;77.30;;;;;;5056323;28;20180;-80
2021/06/27 08:33:50;;;;;;;21.97;19.93;;;22.00;78.50;;;;;;5054683;28;20252;-79
2021/06/27 08:36:15;;;;;;;21.17;18.90;;;22.00;76.20;;;;;;5054419;28;20187;-80
2021/06/27 08:38:41;;;;;;;21.53;19.43;;;22.00;74.30;;;;;;5058712;28;20664;-79
2021/06/27 08:41:07;;;;;;;21.00;19.00;;;21.90;75.80;;;;;;5055353;28;20635;-79
2021/06/27 08:43:34;;;;;;;21.87;19.80;;;22.00;75.30;;;;;;5054626;28;20637;-80
2021/06/27 08:46:05;;;;;;;21.30;19.20;;;22.10;75.30;;;;;;5053322;28;20687;-77
2021/06/27 08:48:36;;;;;;;20.90;18.67;;;22.10;75.10;;;;;;5054271;28;20188;-78
2021/06/27 08:51:02;;;;;;;22.63;20.53;;;22.20;74.30;;;;;;5057552;28;20174;-80
2021/06/27 08:53:29;;;;;;;22.77;20.53;;;22.20;74.00;;;;;;5056631;28;20661;-80
2021/06/27 08:56:08;;;;;;;23.10;20.63;;;22.20;73.80;;;;;;5057403;28;20175;-78
2021/06/27 08:58:38;;;;;;;23.73;20.87;;;22.30;73.70;;;;;;5056830;28;20171;-79
2021/06/27 09:01:05;;;;;;;22.40;20.23;;;22.40;73.50;;;;;;5057262;28;20170;-81
2021/06/27 09:03:31;;;;;;;22.70;20.50;;;22.40;71.70;;;;;;5059241;28;20170;-79
2021/06/27 09:05:58;;;;;;;22.63;20.33;;;22.40;75.30;;;;;;5059528;28;20280;-81
2021/06/27 09:08:23;;;;;;;22.57;20.30;;;22.50;72.50;;;;;;5060344;28;20247;-81
2021/06/27 09:10:49;;;;;;;22.90;20.53;;;22.50;71.50;;;;;;5060633;28;20659;-79
2021/06/27 09:13:15;;;;;;;22.57;20.37;;;22.40;73.60;;;;;;5058266;28;20208;-76
2021/06/27 09:15:42;;;;;;;21.77;19.63;;;22.40;72.70;;;;;;5056563;28;20198;-82
2021/06/27 09:18:14;;;;;;;20.57;18.57;;;22.40;74.60;;;;;;5056842;28;20173;-78
2021/06/27 09:20:46;;;;;;;20.33;18.40;;;22.60;71.70;;;;;;5073456;28;20178;-77
2021/06/27 09:23:14;;;;;;;19.90;18.00;;;22.80;68.10;;;;;;5059285;28;20170;-75
2021/06/27 09:25:41;;;;;;;20.07;17.83;;;22.90;61.60;;;;;;5060026;28;20268;-77
2021/06/27 09:28:11;;;;;;;18.80;16.90;;;23.00;60.80;;;;;;5059610;28;20567;-77
2021/06/27 09:30:41;;;;;;;18.03;16.33;;;23.10;59.90;;;;;;5059368;28;20172;-78
2021/06/27 09:33:17;;;;;;;19.20;17.23;;;23.30;57.60;;;;;;5059588;28;20176;-79
2021/06/27 09:35:44;;;;;;;18.77;16.87;;;23.40;58.40;;;;;;5059747;28;20275;-76
2021/06/27 09:38:28;;;;;;;18.10;16.47;;;23.50;53.20;;;;;;5060463;28;20207;-79
2021/06/27 09:41:00;;;;;;;17.67;15.77;;;23.60;56.00;;;;;;5063722;28;20513;-79
2021/06/27 09:43:29;;;;;;;17.40;15.80;;;23.70;53.10;;;;;;5063690;28;20169;-79
2021/06/27 09:45:57;;;;;;;17.70;16.03;;;23.80;50.70;;;;;;5063235;28;20299;-80
2021/06/27 09:48:25;;;;;;;17.17;15.57;;;23.80;49.00;;;;;;5084066;28;20244;-76
2021/06/27 09:50:51;;;;;;;18.00;16.23;;;23.60;51.20;;;;;;5067981;28;20165;-74
2021/06/27 09:53:41;;;;;;;18.30;16.30;;;23.30;58.30;;;;;;5083907;28;20212;-74
2021/06/27 09:56:10;;;;;;;16.40;14.83;;;23.30;57.30;;;;;;5084350;28;20182;-81
2021/06/27 09:58:37;;;;;;;18.37;16.57;;;23.30;59.80;;;;;;5059023;28;20622;-81
2021/06/27 10:01:18;;;;;;;17.73;15.93;;;23.30;59.40;;;;;;5058707;28;20237;-80
2021/06/27 10:03:55;;;;;;;18.23;16.30;;;23.30;57.90;;;;;;5058605;28;20254;-80
2021/06/27 10:06:35;;;;;;;17.73;15.97;;;23.30;59.20;;;;;;5057814;28;20708;-80
2021/06/27 10:09:13;;;;;;;17.23;15.57;;;23.40;60.30;;;;;;5057587;28;20183;-79
2021/06/27 10:11:54;;;;;;;17.03;15.37;;;23.40;58.20;;;;;;5058932;28;20166;-81
2021/06/27 10:14:19;;;;;;;17.17;15.17;;;23.40;59.80;;;;;;5058491;28;20160;-81
2021/06/27 10:16:47;;;;;;;16.87;14.73;;;23.50;57.40;;;;;;5057977;28;20226;-77
2021/06/27 10:19:13;;;;;;;17.20;15.70;;;23.60;56.70;;;;;;5059129;28;20180;-74
2021/06/27 10:21:40;;;;;;;16.43;14.80;;;23.70;55.50;;;;;;5059408;28;20160;-76
2021/06/27 10:24:06;;;;;;;15.97;14.50;;;23.70;57.10;;;;;;5058997;28;20169;-80
2021/06/27 10:26:31;;;;;;;16.17;14.57;;;23.80;55.00;;;;;;5061824;28;20643;-81
2021/06/27 10:28:58;;;;;;;14.83;13.43;;;24.00;53.40;;;;;;5062018;28;20164;-81
2021/06/27 10:31:26;;;;;;;15.50;14.00;;;24.10;51.20;;;;;;5063747;28;20164;-79
2021/06/27 10:33:52;;;;;;;15.77;14.17;;;24.10;50.30;;;;;;5063388;28;20180;-79
2021/06/27 10:36:42;;;;;;;15.20;13.80;;;24.30;50.00;;;;;;5066624;28;20199;-80
2021/06/27 10:39:11;;;;;;;15.07;13.33;;;24.60;46.70;;;;;;5063349;28;20203;-80
2021/06/27 10:41:54;;;;;;;15.13;13.63;;;24.80;43.50;;;;;;5061761;28;20204;-79
2021/06/27 10:44:28;;;;;;;13.87;12.57;;;25.00;39.50;;;;;;5066601;28;20172;-78
2021/06/27 10:46:57;;;;;;;14.90;13.50;;;25.10;35.10;;;;;;5084004;28;20214;-78
2021/06/27 10:49:33;;;;;;;15.27;13.73;;;24.90;34.00;;;;;;5074088;28;20165;-77
2021/06/27 10:52:11;;;;;;;15.10;13.70;;;25.00;37.60;;;;;;5074029;28;20161;-80
2021/06/27 10:54:39;;;;;;;13.90;12.47;;;25.00;36.70;;;;;;5088778;28;20172;-81
2021/06/27 10:57:16;;;;;;;14.67;12.53;;;25.20;40.00;;;;;;5070469;28;20176;-76
2021/06/27 10:59:47;;;;;;;13.70;12.40;;;25.20;35.70;;;;;;5077145;28;20170;-76
2021/06/27 11:02:20;;;;;;;14.00;12.50;;;25.30;32.00;;;;;;5077730;28;20157;-76
2021/06/27 11:05:25;;;;;;;12.13;11.00;;;25.30;29.80;;;;;;5076995;28;20176;-75
2021/06/27 11:08:28;;;;;;;12.07;10.80;;;25.50;29.80;;;;;;5074790;28;20196;-74
2021/06/27 11:11:03;;;;;;;12.07;10.77;;;25.60;18.60;;;;;;5072522;28;20175;-80
2021/06/27 11:13:32;;;;;;;12.17;10.93;;;25.50;10.00;;;;;;5071961;28;20172;-76
2021/06/27 11:16:04;;;;;;;12.33;11.13;;;25.70;13.90;;;;;;5072929;28;20161;-80
2021/06/27 11:18:34;;;;;;;12.57;10.97;;;25.70;10.50;;;;;;5057136;28;20180;-79
2021/06/27 11:21:15;;;;;;;12.07;10.93;;;25.80;12.60;;;;;;5073290;28;20184;-80
2021/06/27 11:23:55;;;;;;;14.17;11.07;;;25.70;12.80;;;;;;5075572;28;20161;-81
2021/06/27 11:26:41;;;;;;;11.93;10.73;;;25.60;8.80;;;;;;5089105;28;20281;-75
2021/06/27 11:29:25;;;;;;;13.40;10.80;;;25.70;13.10;;;;;;5074824;28;20177;-79
2021/06/27 11:32:11;;;;;;;12.33;11.13;;;25.60;8.80;;;;;;5073314;28;20248;-80
2021/06/27 11:35:10;;;;;;;12.57;11.23;;;25.70;15.90;;;;;;5074012;28;20164;-81
2021/06/27 11:37:41;;;;;;;11.97;10.70;;;26.20;4.20;;;;;;5060610;28;20207;-77
2021/06/27 11:40:08;;;;;;;12.43;11.13;;;26.40;1.00;;;;;;5055561;28;20165;-79
2021/06/27 11:42:34;;;;;;;11.73;10.63;;;26.20;1.00;;;;;;5076874;28;20156;-77
2021/06/27 11:45:06;;;;;;;11.53;10.20;;;26.50;1.00;;;;;;5092531;28;20503;-76
2021/06/27 11:47:58;;;;;;;8.73;7.90;;;26.60;1.00;;;;;;5074092;28;20228;-79
2021/06/27 11:50:28;;;;;;;10.87;8.40;;;26.60;1.00;;;;;;5075155;28;20173;-75
2021/06/27 11:53:29;;;;;;;9.93;9.03;;;26.90;1.00;;;;;;5076212;28;20175;-75
2021/06/27 11:56:34;;;;;;;10.10;9.10;;;27.10;1.00;;;;;;5071988;28;20157;-75
2021/06/27 11:59:25;;;;;;;10.10;9.20;;;27.00;1.00;;;;;;5072509;28;20233;-77
2021/06/27 12:02:20;;;;;;;11.00;9.80;;;27.00;1.00;;;;;;5070888;28;20169;-81
2021/06/27 12:04:52;;;;;;;11.17;10.00;;;26.50;1.00;;;;;;5066799;28;20179;-79
2021/06/27 12:07:29;;;;;;;11.20;9.97;;;26.30;1.00;;;;;;5066696;28;20204;-79
2021/06/27 12:09:56;;;;;;;10.95;9.85;;;26.50;1.00;;;;;;5069911;28;20168;-77
2021/06/27 12:12:52;;;;;;;11.20;9.97;;;26.60;1.00;;;;;;5069450;28;20172;-76
2021/06/27 12:15:18;;;;;;;10.97;9.90;;;26.80;1.00;;;;;;5076809;28;20157;-77
2021/06/27 12:18:06;;;;;;;11.30;10.17;;;27.00;1.00;;;;;;5075935;28;20184;-81
2021/06/27 12:20:52;;;;;;;13.10;10.03;;;26.70;1.00;;;;;;5073350;28;20173;-78
2021/06/27 12:23:39;;;;;;;11.60;10.50;;;26.50;2.90;;;;;;5065339;28;20184;-75
2021/06/27 12:26:24;;;;;;;11.37;10.00;;;26.60;11.40;;;;;;5064066;28;20201;-79
2021/06/27 12:28:57;;;;;;;10.87;9.70;;;26.80;4.80;;;;;;5060773;28;20624;-80
2021/06/27 12:31:33;;;;;;;10.87;9.87;;;26.90;1.00;;;;;;5060553;28;20243;-81
2021/06/27 12:34:06;;;;;;;10.63;9.63;;;27.00;1.00;;;;;;5060349;28;20168;-82
2021/06/27 12:36:39;;;;;;;12.10;9.85;;;27.00;1.00;;;;;;5060010;28;20184;-81
2021/06/27 12:39:12;;;;;;;11.10;9.97;;;27.10;1.00;;;;;;5061602;28;20183;-80